Time;durP1;ratioP1;P1;durP2;ratioP2;P2;SDS_P1;SDS_P2;PMS_P1;PMS_P2;Temp;Humidity;BMP_temperature;BMP_pressure;BME280_temperature;BME280_humidity;BME280_pressure;Samples;Min_cycle;Max_cycle;Signal;HPM_P1;HPM_P2
2023/04/22 00:04:29;;;;;;;9.00;6.30;;;;;;;5.25;100.00;96333.78;10417669;28;20228;-65
2023/04/22 00:09:29;;;;;;;9.77;6.07;;;;;;;5.22;100.00;96323.66;10418871;28;20195;-64
2023/04/22 00:14:29;;;;;;;12.57;6.00;;;;;;;5.15;100.00;96322.59;10418252;28;20208;-63
2023/04/22 00:19:30;;;;;;;10.37;6.70;;;;;;;5.05;100.00;96325.13;10416460;28;20610;-64
2023/04/22 00:24:30;;;;;;;10.40;7.90;;;;;;;4.96;100.00;96313.78;10417878;28;20267;-64
2023/04/22 00:29:30;;;;;;;15.70;7.70;;;;;;;4.95;100.00;96319.09;10417691;28;20214;-64
2023/04/22 00:34:31;;;;;;;12.37;7.60;;;;;;;5.05;100.00;96314.75;10417730;28;20200;-64
2023/04/22 00:39:31;;;;;;;10.10;6.97;;;;;;;5.02;100.00;96311.59;10417323;28;20271;-64
2023/04/22 00:44:32;;;;;;;14.37;7.47;;;;;;;4.73;100.00;96312.31;10416962;28;20232;-64
2023/04/22 00:49:34;;;;;;;13.47;7.53;;;;;;;4.66;100.00;96311.19;10399393;28;20203;-64
2023/04/22 00:54:35;;;;;;;14.33;7.33;;;;;;;4.71;100.00;96298.66;10416708;28;20252;-63
2023/04/22 00:59:35;;;;;;;10.93;7.47;;;;;;;4.72;100.00;96295.13;10416518;28;20196;-64
2023/04/22 01:04:36;;;;;;;12.00;7.70;;;;;;;4.77;100.00;96291.16;10398528;28;20220;-64
2023/04/22 01:09:38;;;;;;;11.90;8.67;;;;;;;4.82;100.00;96285.56;10416394;28;20243;-65
2023/04/22 01:14:38;;;;;;;14.53;8.90;;;;;;;5.17;100.00;96279.94;10416026;28;20201;-65
2023/04/22 01:19:40;;;;;;;15.30;8.83;;;;;;;5.46;100.00;96273.97;10415965;28;20184;-64
2023/04/22 01:24:40;;;;;;;12.83;8.70;;;;;;;5.21;100.00;96274.47;10381555;28;21066;-63
2023/04/22 01:29:40;;;;;;;12.73;9.00;;;;;;;4.90;100.00;96277.13;10415461;28;20197;-65
2023/04/22 01:34:41;;;;;;;14.30;9.37;;;;;;;4.78;100.00;96273.84;10415403;28;20258;-64
2023/04/22 01:39:41;;;;;;;12.80;9.10;;;;;;;5.41;100.00;96262.34;10415173;28;20173;-64
2023/04/22 01:44:42;;;;;;;14.03;8.87;;;;;;;5.47;100.00;96254.03;10397109;28;20221;-64
2023/04/22 01:49:42;;;;;;;13.00;9.50;;;;;;;5.20;100.00;96263.28;10396997;28;20672;-64
2023/04/22 01:54:43;;;;;;;12.57;9.30;;;;;;;4.86;100.00;96257.59;10414489;28;20201;-65
2023/04/22 01:59:44;;;;;;;13.33;8.43;;;;;;;5.02;100.00;96251.91;10414268;28;20258;-64
2023/04/22 02:04:44;;;;;;;16.17;9.70;;;;;;;5.44;100.00;96236.13;10413554;28;20820;-64
2023/04/22 02:09:44;;;;;;;14.73;10.03;;;;;;;5.34;100.00;96239.53;10396124;28;20294;-64
2023/04/22 02:14:45;;;;;;;16.63;9.27;;;;;;;5.16;100.00;96239.34;10396012;28;20208;-65
2023/04/22 02:19:45;;;;;;;14.13;9.17;;;;;;;4.98;100.00;96235.78;10413617;28;20189;-65
2023/04/22 02:24:46;;;;;;;13.80;8.70;;;;;;;5.27;100.00;96232.41;10395303;28;20251;-65
2023/04/22 02:29:47;;;;;;;14.47;8.80;;;;;;;5.44;100.00;96221.34;10413411;28;20181;-64
2023/04/22 02:34:47;;;;;;;15.33;9.03;;;;;;;5.94;100.00;96212.53;10394924;28;20227;-64
2023/04/22 02:39:48;;;;;;;15.00;9.10;;;;;;;6.12;100.00;96194.44;10395204;28;20243;-64
2023/04/22 02:44:48;;;;;;;13.17;8.63;;;;;;;5.35;100.00;96209.16;10394690;28;20220;-65
2023/04/22 02:49:49;;;;;;;18.57;9.07;;;;;;;5.07;100.00;96216.81;10366863;28;20684;-65
2023/04/22 02:54:49;;;;;;;15.17;9.17;;;;;;;5.18;100.00;96208.88;10353986;28;20706;-65
2023/04/22 02:59:50;;;;;;;17.10;9.27;;;;;;;4.99;100.00;96214.03;10353567;28;20679;-64
2023/04/22 03:04:53;;;;;;;13.57;8.20;;;;;;;5.32;100.00;96199.84;10378680;28;20220;-64
2023/04/22 03:09:54;;;;;;;13.87;9.23;;;;;;;5.54;100.00;96196.19;10411707;28;20189;-63
2023/04/22 03:14:55;;;;;;;17.53;8.43;;;;;;;5.65;100.00;96182.22;10409506;28;20713;-64
2023/04/22 03:19:57;;;;;;;14.50;8.40;;;;;;;5.44;100.00;96197.16;10393843;28;20187;-65
2023/04/22 03:24:57;;;;;;;10.07;7.90;;;;;;;5.43;100.00;96201.50;10393265;28;20601;-64
2023/04/22 03:29:58;;;;;;;14.90;8.37;;;;;;;5.50;100.00;96186.22;10393860;28;20223;-64
2023/04/22 03:34:58;;;;;;;11.80;7.43;;;;;;;5.54;100.00;96185.78;10393140;28;20231;-64
2023/04/22 03:39:58;;;;;;;11.13;7.40;;;;;;;5.70;100.00;96180.00;10393527;28;20246;-65
2023/04/22 03:45:01;;;;;;;12.40;7.50;;;;;;;5.79;100.00;96172.31;10393347;28;20220;-64
2023/04/22 03:50:08;;;;;;;11.30;7.07;;;;;;;5.95;100.00;96175.16;10393300;28;20659;-63
2023/04/22 03:55:09;;;;;;;13.17;7.43;;;;;;;6.31;100.00;96166.72;10410009;28;20227;-65
2023/04/22 04:00:10;;;;;;;12.97;7.50;;;;;;;6.18;100.00;96160.06;10392670;28;20667;-65
2023/04/22 04:05:14;;;;;;;11.53;8.00;;;;;;;6.13;100.00;96161.47;10410591;28;20223;-66
2023/04/22 04:10:15;;;;;;;14.43;7.67;;;;;;;5.78;100.00;96165.50;10392792;28;20203;-66
2023/04/22 04:15:17;;;;;;;11.57;7.43;;;;;;;6.05;100.00;96160.41;10392631;28;20220;-66
2023/04/22 04:20:21;;;;;;;10.83;7.43;;;;;;;6.01;100.00;96164.25;10408986;28;20283;-65
2023/04/22 04:25:22;;;;;;;13.53;7.10;;;;;;;6.20;100.00;96157.31;10392340;28;20236;-66
2023/04/22 04:30:24;;;;;;;15.47;7.43;;;;;;;6.39;100.00;96157.25;10399941;28;20184;-66
2023/04/22 04:35:28;;;;;;;11.70;7.47;;;;;;;6.51;100.00;96155.28;10416277;28;20709;-65
2023/04/22 04:40:30;;;;;;;12.93;7.63;;;;;;;6.29;100.00;96156.47;10399620;28;20209;-65
2023/04/22 04:45:46;;;;;;;12.77;7.40;;;;;;;6.66;100.00;96160.00;10415754;28;20211;-65
2023/04/22 04:50:49;;;;;;;11.67;6.93;;;;;;;6.97;100.00;96143.06;10401604;28;20660;-65
2023/04/22 04:55:49;;;;;;;9.63;7.07;;;;;;;7.05;98.76;96144.13;10396757;28;20212;-65
2023/04/22 05:00:56;;;;;;;11.90;8.33;;;;;;;7.26;97.26;96143.84;10395612;28;20217;-66
2023/04/22 05:05:58;;;;;;;10.07;6.67;;;;;;;7.72;94.79;96141.06;10396334;28;20221;-64
2023/04/22 05:10:59;;;;;;;16.90;8.63;;;;;;;8.28;88.90;96103.22;10398578;28;20239;-65
2023/04/22 05:15:59;;;;;;;8.57;6.77;;;;;;;8.59;86.73;96109.72;10416064;28;20232;-64
2023/04/22 05:21:02;;;;;;;20.80;9.50;;;;;;;9.10;83.18;96086.97;10398165;28;20303;-63
2023/04/22 05:26:03;;;;;;;11.53;6.83;;;;;;;9.49;80.32;96070.59;10396394;28;20232;-65
2023/04/22 05:31:05;;;;;;;11.63;7.30;;;;;;;9.88;78.07;96069.88;10397642;28;20195;-63
2023/04/22 05:36:06;;;;;;;16.17;8.63;;;;;;;10.27;76.14;96061.22;10397460;28;20720;-65
2023/04/22 05:41:06;;;;;;;11.80;6.32;;;;;;;10.63;74.23;96049.47;10396303;28;20223;-64
2023/04/22 05:46:07;;;;;;;10.32;5.65;;;;;;;11.24;70.32;96012.81;10413396;28;20226;-65
2023/04/22 05:51:11;;;;;;;9.88;5.70;;;;;;;11.92;67.51;95992.59;10414808;28;20180;-65
2023/04/22 05:56:11;;;;;;;6.47;4.35;;;;;;;12.50;64.77;95973.47;10396884;28;20209;-63
2023/04/22 06:01:12;;;;;;;8.73;4.90;;;;;;;13.00;62.26;95952.47;10414377;28;20212;-65
2023/04/22 06:06:31;;;;;;;10.27;5.30;;;;;;;13.37;59.79;95932.94;10414078;28;20215;-65
2023/04/22 06:11:32;;;;;;;7.82;5.03;;;;;;;13.44;60.00;95964.53;10393806;28;20207;-64
2023/04/22 06:16:32;;;;;;;8.57;5.00;;;;;;;14.33;57.91;95946.31;10411216;28;20295;-64
2023/04/22 06:21:33;;;;;;;7.80;4.97;;;;;;;14.55;57.38;95942.50;10394801;28;20208;-64
2023/04/22 06:26:33;;;;;;;11.55;4.93;;;;;;;14.57;55.91;95931.75;10413085;28;20236;-64
2023/04/22 06:31:34;;;;;;;9.65;5.05;;;;;;;14.44;56.90;95948.34;10413039;28;20185;-65
2023/04/22 06:36:36;;;;;;;8.63;5.10;;;;;;;15.30;55.35;95944.16;10412745;28;20208;-64
2023/04/22 06:41:36;;;;;;;11.05;4.40;;;;;;;15.23;53.43;95912.50;10395043;28;20228;-64
2023/04/22 06:46:45;;;;;;;7.57;4.80;;;;;;;14.77;56.14;95960.81;10391860;28;20264;-64
2023/04/22 06:52:05;;;;;;;8.93;4.25;;;;;;;14.50;56.17;95971.28;10407925;28;20188;-64
2023/04/22 06:57:06;;;;;;;11.98;4.85;;;;;;;14.45;55.99;95963.94;10392591;28;20216;-65
2023/04/22 07:02:08;;;;;;;10.65;4.00;;;;;;;14.55;54.73;95945.13;10388325;28;20687;-64
2023/04/22 07:07:11;;;;;;;6.72;3.80;;;;;;;14.72;54.24;95942.16;10392715;28;20244;-65
2023/04/22 07:12:12;;;;;;;9.65;4.03;;;;;;;15.02;54.69;95971.56;10391111;28;20273;-65
2023/04/22 07:17:12;;;;;;;15.73;4.82;;;;;;;15.53;53.40;95943.72;10410441;28;20737;-66
2023/04/22 07:22:13;;;;;;;9.60;4.18;;;;;;;14.93;52.76;95918.22;10409960;28;20916;-65
2023/04/22 07:27:13;;;;;;;13.32;4.60;;;;;;;15.11;52.87;95924.69;10409902;28;20261;-66
2023/04/22 07:32:13;;;;;;;8.90;4.63;;;;;;;15.62;51.11;95897.59;10409803;28;20615;-65
2023/04/22 07:37:14;;;;;;;7.22;4.35;;;;;;;15.70;51.71;95922.97;10410001;28;20661;-65
2023/04/22 07:42:14;;;;;;;10.90;3.70;;;;;;;15.71;51.34;95924.56;10409515;28;20717;-65
2023/04/22 07:47:15;;;;;;;7.85;4.15;;;;;;;15.81;48.66;95858.16;10408522;28;20702;-65
2023/04/22 07:52:15;;;;;;;16.75;4.47;;;;;;;16.70;48.50;95882.78;10409450;28;20211;-65
2023/04/22 07:57:16;;;;;;;11.77;4.45;;;;;;;16.93;47.12;95862.91;10409311;28;20720;-64
2023/04/22 08:02:16;;;;;;;10.35;4.13;;;;;;;16.70;48.59;95895.22;10394031;28;20278;-65
2023/04/22 08:07:16;;;;;;;13.10;4.20;;;;;;;16.85;46.21;95850.72;10412751;28;20208;-65
2023/04/22 08:12:17;;;;;;;8.88;4.20;;;;;;;16.48;47.61;95878.91;10414597;28;20562;-65
2023/04/22 08:17:20;;;;;;;11.90;4.38;;;;;;;16.88;46.75;95870.69;10404312;28;20611;-65
2023/04/22 08:22:22;;;;;;;8.68;4.03;;;;;;;17.25;47.62;95895.34;10414081;28;20219;-64
2023/04/22 08:27:23;;;;;;;8.30;3.75;;;;;;;16.80;45.13;95821.47;10442090;28;20266;-65
2023/04/22 08:32:25;;;;;;;7.18;3.50;;;;;;;16.87;45.86;95867.22;10457105;28;20177;-65
2023/04/22 08:37:25;;;;;;;7.88;3.90;;;;;;;17.65;42.97;95818.13;10457646;28;20619;-66
2023/04/22 08:42:28;;;;;;;6.15;3.30;;;;;;;17.01;43.69;95822.13;10456892;28;20238;-66
2023/04/22 08:47:31;;;;;;;10.65;3.30;;;;;;;17.32;43.46;95823.84;10456913;28;20215;-64
2023/04/22 08:52:31;;;;;;;8.80;3.47;;;;;;;17.52;43.53;95828.91;10410084;28;20185;-65
2023/04/22 08:57:32;;;;;;;6.03;3.70;;;;;;;17.03;43.05;95802.34;10401945;28;20279;-65
2023/04/22 09:02:33;;;;;;;8.90;4.70;;;;;;;16.77;45.13;95849.16;10388739;28;20220;-65
2023/04/22 09:07:35;;;;;;;8.25;4.03;;;;;;;17.62;44.89;95883.97;10386391;28;20211;-64
2023/04/22 09:12:36;;;;;;;6.07;3.63;;;;;;;17.25;43.29;95825.75;10404249;28;20196;-64
2023/04/22 09:17:40;;;;;;;9.52;3.83;;;;;;;17.45;43.94;95844.84;10413504;28;20597;-66
2023/04/22 09:22:42;;;;;;;6.13;3.22;;;;;;;17.52;42.45;95801.59;10413207;28;20309;-65
2023/04/22 09:27:48;;;;;;;9.75;4.45;;;;;;;17.92;42.71;95824.97;10413798;28;20259;-66
2023/04/22 09:32:53;;;;;;;9.77;4.22;;;;;;;18.11;42.59;95823.06;10396170;28;20259;-66
2023/04/22 09:37:54;;;;;;;8.25;3.80;;;;;;;18.65;41.99;95817.72;10372696;28;20295;-67
2023/04/22 09:42:57;;;;;;;11.32;3.33;;;;;;;18.39;42.72;95840.97;10392699;28;20261;-67
2023/04/22 09:48:14;;;;;;;7.05;3.22;;;;;;;17.87;42.52;95815.00;10413097;28;20220;-66
2023/04/22 09:53:17;;;;;;;10.25;2.88;;;;;;;17.34;41.26;95757.44;10412057;28;20224;-66
2023/04/22 09:58:19;;;;;;;5.45;3.35;;;;;;;18.18;42.09;95811.31;10411366;28;20216;-64
2023/04/22 10:03:19;;;;;;;5.75;2.70;;;;;;;17.68;40.67;95747.19;10390910;28;20312;-65
2023/04/22 10:08:20;;;;;;;5.00;2.90;;;;;;;17.48;41.50;95764.97;10413669;28;20216;-65
2023/04/22 10:13:21;;;;;;;5.65;3.72;;;;;;;17.42;42.97;95813.50;10413724;28;20570;-66
2023/04/22 10:18:23;;;;;;;6.28;3.20;;;;;;;17.90;42.46;95808.47;10413855;28;20220;-66
2023/04/22 10:23:24;;;;;;;7.40;3.40;;;;;;;18.07;42.51;95814.75;10395281;28;20220;-64
2023/04/22 10:28:27;;;;;;;8.40;3.75;;;;;;;18.41;42.76;95819.53;10413365;28;20617;-66
2023/04/22 10:33:30;;;;;;;7.45;3.25;;;;;;;18.17;43.25;95825.59;10394501;28;20669;-68
2023/04/22 10:38:34;;;;;;;6.65;3.88;;;;;;;18.81;42.25;95822.38;10413119;28;20303;-67
2023/04/22 10:43:47;;;;;;;10.18;4.20;;;;;;;18.85;42.69;95830.69;10412739;28;20220;-67
2023/04/22 10:48:49;;;;;;;6.18;4.50;;;;;;;18.83;42.46;95822.13;10412734;28;20209;-69
2023/04/22 10:53:49;;;;;;;7.80;4.47;;;;;;;18.10;44.17;95839.97;10412430;28;20726;-68
2023/04/22 10:58:50;;;;;;;7.32;4.45;;;;;;;18.53;43.59;95833.66;10412090;28;20293;-67
2023/04/22 11:03:50;;;;;;;6.63;4.35;;;;;;;18.47;43.62;95822.09;10411475;28;20223;-68
2023/04/22 11:09:07;;;;;;;10.52;4.60;;;;;;;18.38;44.58;95844.69;10410900;28;20246;-67
2023/04/22 11:14:09;;;;;;;10.00;4.97;;;;;;;18.44;43.93;95827.06;10409836;28;20572;-68
2023/04/22 11:19:09;;;;;;;10.13;4.28;;;;;;;18.55;43.67;95828.91;10392475;28;20192;-69
2023/04/22 11:24:09;;;;;;;8.18;5.28;;;;;;;18.65;44.14;95841.59;10410467;28;20721;-69
2023/04/22 11:29:10;;;;;;;8.70;5.18;;;;;;;18.84;44.22;95848.44;10411479;28;20259;-68
2023/04/22 11:34:11;;;;;;;11.48;4.70;;;;;;;18.77;42.29;95786.69;10410890;28;20212;-68
2023/04/22 11:39:13;;;;;;;8.57;5.53;;;;;;;18.28;44.21;95817.91;10410424;28;20331;-69
2023/04/22 11:44:14;;;;;;;9.35;5.60;;;;;;;19.03;44.21;95829.78;10410836;28;20551;-69
2023/04/22 11:49:15;;;;;;;9.63;4.85;;;;;;;19.32;42.60;95798.78;10410977;28;20224;-67
2023/04/22 11:54:15;;;;;;;9.95;5.18;;;;;;;18.82;42.87;95799.28;10410217;28;20212;-67
2023/04/22 11:59:16;;;;;;;8.10;3.78;;;;;;;18.73;41.69;95756.38;10410561;28;20279;-66
2023/04/22 12:04:16;;;;;;;11.02;3.60;;;;;;;19.31;40.42;95757.38;10410471;28;20228;-66
2023/04/22 12:09:17;;;;;;;7.10;3.28;;;;;;;19.33;39.64;95730.56;10410800;28;20261;-66
2023/04/22 12:14:17;;;;;;;9.27;3.35;;;;;;;19.60;38.48;95699.72;10410766;28;20201;-68
2023/04/22 12:19:24;;;;;;;4.07;2.75;;;;;;;18.80;38.66;95680.09;10410439;28;20192;-68
2023/04/22 12:24:28;;;;;;;6.20;3.40;;;;;;;19.53;38.58;95708.91;10409705;28;20754;-67
2023/04/22 12:29:30;;;;;;;8.23;3.30;;;;;;;19.72;37.87;95689.03;10410523;28;20200;-67
2023/04/22 12:34:31;;;;;;;7.25;3.30;;;;;;;20.22;36.97;95670.72;10409819;28;20209;-66
2023/04/22 12:39:31;;;;;;;4.85;3.35;;;;;;;18.94;39.17;95685.19;10410204;28;20188;-66
2023/04/22 12:44:32;;;;;;;6.05;3.33;;;;;;;19.17;38.28;95679.00;10409749;28;20702;-66
2023/04/22 12:49:32;;;;;;;8.80;3.58;;;;;;;19.59;39.05;95707.94;10414205;28;20571;-65
2023/04/22 12:54:33;;;;;;;10.57;3.55;;;;;;;20.22;38.43;95702.63;10417264;28;20690;-66
2023/04/22 12:59:33;;;;;;;10.57;3.35;;;;;;;20.26;37.93;95688.59;10416615;28;20658;-65
2023/04/22 13:04:33;;;;;;;6.57;3.55;;;;;;;20.46;38.48;95701.41;10416799;28;20760;-67
2023/04/22 13:09:34;;;;;;;5.80;3.35;;;;;;;20.48;36.74;95651.41;10416403;28;20671;-68
2023/04/22 13:14:34;;;;;;;9.07;4.03;;;;;;;20.41;40.29;95735.91;10416292;28;20227;-68
2023/04/22 13:19:34;;;;;;;8.65;4.18;;;;;;;20.10;39.65;95721.31;10416022;28;20188;-66
2023/04/22 13:24:35;;;;;;;7.20;4.57;;;;;;;19.56;39.95;95714.53;10415483;28;20323;-67
2023/04/22 13:29:36;;;;;;;9.18;4.50;;;;;;;20.38;39.50;95716.97;10415773;28;20701;-68
2023/04/22 13:34:38;;;;;;;9.40;5.03;;;;;;;20.57;39.86;95734.28;10415405;28;20205;-67
2023/04/22 13:39:38;;;;;;;7.30;3.72;;;;;;;20.30;38.54;95679.06;10415359;28;20212;-67
2023/04/22 13:44:38;;;;;;;5.50;3.90;;;;;;;20.01;39.73;95691.66;10415166;28;20311;-67
2023/04/22 13:49:39;;;;;;;8.68;4.13;;;;;;;20.76;39.99;95726.06;10415064;28;20207;-67
2023/04/22 13:54:39;;;;;;;10.48;4.93;;;;;;;20.63;40.11;95727.19;10415197;28;20208;-67
2023/04/22 13:59:40;;;;;;;8.77;4.53;;;;;;;21.33;39.41;95720.38;10396411;28;20232;-65
2023/04/22 14:04:40;;;;;;;10.27;4.32;;;;;;;20.18;40.22;95686.34;10414315;28;20240;-67
2023/04/22 14:09:41;;;;;;;6.65;3.60;;;;;;;20.37;39.51;95676.25;10414371;28;20224;-67
2023/04/22 14:14:41;;;;;;;7.07;4.20;;;;;;;20.93;39.74;95705.50;10413829;28;20216;-67
2023/04/22 14:19:43;;;;;;;11.20;5.20;;;;;;;22.50;37.21;95680.91;10413896;28;20303;-67
2023/04/22 14:24:44;;;;;;;7.75;4.50;;;;;;;22.31;37.16;95661.84;10413570;28;20228;-67
2023/04/22 14:29:45;;;;;;;5.57;4.35;;;;;;;22.48;37.94;95693.69;10413363;28;20196;-67
2023/04/22 14:34:45;;;;;;;12.45;4.40;;;;;;;22.41;36.91;95643.22;10413392;28;20209;-66
2023/04/22 14:39:45;;;;;;;12.30;4.28;;;;;;;21.87;36.67;95622.84;10412869;28;20192;-67
2023/04/22 14:44:46;;;;;;;11.32;4.57;;;;;;;21.26;38.75;95658.50;10412759;28;20279;-67
2023/04/22 14:49:46;;;;;;;8.40;3.90;;;;;;;21.65;38.02;95653.03;10412677;28;20216;-67
2023/04/22 14:54:47;;;;;;;10.25;3.80;;;;;;;22.32;36.22;95626.88;10413202;28;20254;-67
2023/04/22 14:59:48;;;;;;;8.02;4.03;;;;;;;21.65;38.54;95657.56;10412952;28;20188;-68
2023/04/22 15:04:48;;;;;;;9.95;4.32;;;;;;;21.79;37.84;95655.28;10411971;28;20302;-67
2023/04/22 15:09:48;;;;;;;10.02;4.25;;;;;;;21.79;37.83;95642.78;10411115;28;20211;-67
2023/04/22 15:14:49;;;;;;;12.45;3.70;;;;;;;21.12;38.42;95631.44;10411769;28;20287;-67
2023/04/22 15:19:52;;;;;;;9.35;4.40;;;;;;;21.16;38.30;95621.09;10411588;28;20246;-67
2023/04/22 15:24:52;;;;;;;6.82;3.60;;;;;;;19.87;40.26;95623.94;10411448;28;20685;-68
2023/04/22 15:29:53;;;;;;;8.60;4.32;;;;;;;19.98;40.57;95625.69;10411437;28;20280;-67
2023/04/22 15:34:54;;;;;;;5.88;3.72;;;;;;;20.77;39.36;95635.31;10411206;28;20790;-67
2023/04/22 15:39:54;;;;;;;13.10;3.90;;;;;;;20.76;38.73;95608.94;10411244;28;20192;-67
2023/04/22 15:44:55;;;;;;;6.68;3.70;;;;;;;20.20;39.52;95601.00;10410807;28;20231;-66
2023/04/22 15:49:56;;;;;;;10.57;3.55;;;;;;;21.58;39.03;95643.63;10411184;28;20192;-67
2023/04/22 15:54:56;;;;;;;24.73;4.15;;;;;;;20.86;39.81;95630.34;10393481;28;20212;-66
2023/04/22 15:59:57;;;;;;;5.75;3.75;;;;;;;21.18;39.16;95613.66;10410868;28;20223;-67
2023/04/22 16:04:57;;;;;;;16.50;5.70;;;;;;;21.24;39.52;95628.66;10410808;28;20228;-67
2023/04/22 16:09:57;;;;;;;10.50;3.75;;;;;;;20.72;38.81;95581.19;10410646;28;20246;-67
2023/04/22 16:14:58;;;;;;;8.07;4.00;;;;;;;20.65;39.25;95581.41;10410563;28;20220;-67
2023/04/22 16:19:58;;;;;;;6.15;4.80;;;;;;;20.25;40.92;95606.41;10410568;28;20228;-67
2023/04/22 16:24:59;;;;;;;7.40;6.13;;;;;;;19.41;43.06;95626.59;10415883;28;20263;-67
2023/04/22 16:29:59;;;;;;;10.60;4.60;;;;;;;19.47;42.43;95615.00;10418346;28;20603;-68
2023/04/22 16:35:00;;;;;;;7.45;4.28;;;;;;;18.36;44.87;95635.44;10443695;23;20634;-66
2023/04/22 16:40:00;;;;;;;10.23;4.10;;;;;;;18.16;44.56;95617.25;10456570;28;20214;-67
2023/04/22 16:45:00;;;;;;;14.95;4.15;;;;;;;18.33;44.33;95622.66;10459245;28;20219;-66
2023/04/22 16:50:01;;;;;;;11.38;4.43;;;;;;;18.09;45.47;95643.06;10458692;28;20654;-66
2023/04/22 16:55:01;;;;;;;6.57;4.03;;;;;;;17.92;46.65;95661.47;10458625;28;20333;-66
2023/04/22 17:00:04;;;;;;;5.95;3.88;;;;;;;17.78;46.86;95663.50;10458356;28;20192;-65
2023/04/22 17:05:05;;;;;;;15.38;4.00;;;;;;;17.50;47.35;95655.38;10458087;28;20226;-66
2023/04/22 17:10:06;;;;;;;6.80;4.43;;;;;;;17.28;48.12;95669.13;10458142;28;20198;-63
2023/04/22 17:15:06;;;;;;;7.03;4.53;;;;;;;17.16;48.54;95677.00;10457659;28;20273;-66
2023/04/22 17:20:07;;;;;;;9.70;4.82;;;;;;;17.14;49.23;95691.50;10458114;28;20192;-66
2023/04/22 17:25:08;;;;;;;8.57;4.93;;;;;;;16.97;49.11;95673.59;10457062;28;20219;-66
2023/04/22 17:30:08;;;;;;;8.05;4.72;;;;;;;16.77;49.78;95682.53;10457761;28;20205;-65
2023/04/22 17:35:09;;;;;;;37.03;19.55;;;;;;;16.29;52.08;95720.22;10456031;28;20253;-65
2023/04/22 17:40:10;;;;;;;13.50;8.23;;;;;;;16.24;52.70;95743.84;10457055;28;20223;-65
2023/04/22 17:45:10;;;;;;;21.33;12.93;;;;;;;15.83;54.70;95763.66;10456996;28;20772;-65
2023/04/22 17:50:11;;;;;;;13.93;9.75;;;;;;;15.43;55.99;95782.31;10456136;28;20192;-65
2023/04/22 17:55:11;;;;;;;11.15;6.05;;;;;;;15.06;57.54;95800.53;10456601;28;20207;-64
2023/04/22 18:00:13;;;;;;;8.38;5.68;;;;;;;14.92;59.39;95828.75;10456043;28;20227;-65
2023/04/22 18:05:13;;;;;;;12.45;6.85;;;;;;;14.60;62.92;95868.94;10455915;28;20228;-65
2023/04/22 18:10:14;;;;;;;10.77;6.35;;;;;;;14.09;65.16;95895.78;10461373;28;20200;-66
2023/04/22 18:15:14;;;;;;;20.15;10.73;;;;;;;13.58;65.39;95867.25;10481082;28;20685;-66
2023/04/22 18:20:16;;;;;;;16.75;9.43;;;;;;;13.67;66.35;95872.13;10463394;28;20195;-65
2023/04/22 18:25:16;;;;;;;13.50;7.28;;;;;;;13.34;67.34;95879.91;10455203;28;20697;-66
2023/04/22 18:30:17;;;;;;;10.98;6.68;;;;;;;12.94;69.55;95890.13;10455084;28;20199;-65
2023/04/22 18:35:18;;;;;;;12.27;6.47;;;;;;;12.48;71.80;95905.34;10454548;28;20698;-66
2023/04/22 18:40:20;;;;;;;15.35;7.72;;;;;;;12.69;71.55;95890.56;10454848;28;20541;-65
2023/04/22 18:45:21;;;;;;;15.75;6.82;;;;;;;12.48;72.84;95894.84;10454161;28;20245;-65
2023/04/22 18:50:22;;;;;;;8.60;5.72;;;;;;;12.04;75.41;95908.94;10453911;28;20234;-65
2023/04/22 18:55:22;;;;;;;20.60;11.43;;;;;;;12.02;76.09;95899.63;10454073;28;20232;-65
2023/04/22 19:00:23;;;;;;;17.05;11.80;;;;;;;12.04;75.42;95892.41;10453671;28;20199;-65
2023/04/22 19:05:23;;;;;;;13.57;11.00;;;;;;;11.80;76.45;95890.88;10453296;28;20232;-65
2023/04/22 19:10:23;;;;;;;13.13;8.70;;;;;;;11.82;76.08;95883.63;10453477;28;20187;-65
2023/04/22 19:15:24;;;;;;;12.25;6.35;;;;;;;11.69;76.61;95881.66;10452914;28;20207;-64
2023/04/22 19:20:25;;;;;;;11.30;6.70;;;;;;;11.64;76.27;95873.53;10453496;28;20187;-65
2023/04/22 19:25:25;;;;;;;11.00;6.25;;;;;;;11.66;76.34;95869.72;10453208;28;20779;-65
2023/04/22 19:30:26;;;;;;;14.77;6.63;;;;;;;11.38;76.99;95875.66;10452853;28;20188;-65
2023/04/22 19:35:26;;;;;;;10.52;6.40;;;;;;;11.48;76.47;95866.69;10452575;28;20238;-65
2023/04/22 19:40:28;;;;;;;11.52;6.18;;;;;;;11.36;77.60;95868.94;10452438;28;20633;-65
2023/04/22 19:45:28;;;;;;;11.75;5.75;;;;;;;11.32;77.26;95863.25;10452479;28;21020;-65
2023/04/22 19:50:29;;;;;;;12.25;7.95;;;;;;;11.51;75.08;95829.59;10452970;28;20250;-65
2023/04/22 19:55:31;;;;;;;7.95;5.57;;;;;;;11.37;76.59;95844.38;10452942;28;20223;-65
2023/04/22 20:00:31;;;;;;;9.88;5.47;;;;;;;11.43;75.90;95846.25;10458263;28;20226;-65
2023/04/22 20:05:32;;;;;;;9.02;4.88;;;;;;;11.51;75.58;95829.59;10460618;28;20762;-65
2023/04/22 20:10:32;;;;;;;11.93;4.50;;;;;;;11.63;74.04;95822.88;10460522;28;20286;-65
2023/04/22 20:15:33;;;;;;;10.95;5.20;;;;;;;11.63;74.25;95815.00;10460275;28;20212;-65
2023/04/22 20:20:33;;;;;;;8.35;5.00;;;;;;;11.57;74.32;95811.31;10460023;28;20203;-65
2023/04/22 20:25:37;;;;;;;8.60;5.82;;;;;;;11.55;74.17;95809.88;10459793;28;20732;-64
2023/04/22 20:30:38;;;;;;;11.57;5.35;;;;;;;11.66;73.31;95804.13;10459509;28;20250;-65
2023/04/22 20:35:39;;;;;;;17.20;5.05;;;;;;;11.42;75.77;95821.84;10459134;28;20285;-65
2023/04/22 20:40:41;;;;;;;10.55;5.97;;;;;;;11.16;77.01;95829.38;10459110;28;20188;-66
2023/04/22 20:45:42;;;;;;;10.23;6.05;;;;;;;11.07;77.14;95819.00;10458873;28;20231;-66
2023/04/22 20:50:42;;;;;;;13.00;5.80;;;;;;;11.28;76.47;95801.69;10458888;28;20557;-66
2023/04/22 20:55:43;;;;;;;10.45;5.68;;;;;;;11.33;75.47;95801.97;10458666;28;20779;-66
2023/04/22 21:00:44;;;;;;;11.98;5.45;;;;;;;11.68;73.53;95764.59;10458451;28;20212;-66
2023/04/22 21:05:45;;;;;;;9.02;4.55;;;;;;;11.99;71.06;95743.34;10457875;28;20238;-65
2023/04/22 21:10:45;;;;;;;9.02;4.00;;;;;;;12.12;70.31;95740.78;10456691;28;20191;-66
2023/04/22 21:16:00;;;;;;;8.40;3.67;;;;;;;12.45;68.40;95710.50;10457789;28;20208;-66
2023/04/22 21:21:02;;;;;;;9.23;3.92;;;;;;;12.47;68.15;95725.09;10456296;28;20195;-66
2023/04/22 21:26:04;;;;;;;11.75;3.65;;;;;;;12.65;67.08;95708.03;10457451;28;20255;-66
2023/04/22 21:31:05;;;;;;;7.70;3.50;;;;;;;12.91;65.72;95694.19;10456969;28;20188;-67
2023/04/22 21:36:05;;;;;;;11.40;3.25;;;;;;;13.16;64.20;95670.78;10457346;28;20232;-65
2023/04/22 21:41:06;;;;;;;10.32;3.80;;;;;;;13.13;64.57;95686.97;10456759;28;20192;-64
2023/04/22 21:46:07;;;;;;;8.60;3.85;;;;;;;13.23;64.23;95670.84;10456662;28;20212;-64
2023/04/22 21:51:07;;;;;;;5.18;3.72;;;;;;;13.53;62.33;95655.50;10456524;28;20196;-64
2023/04/22 21:56:08;;;;;;;7.53;3.65;;;;;;;13.62;62.10;95658.75;10456033;28;20215;-66
2023/04/22 22:01:08;;;;;;;10.15;3.78;;;;;;;13.47;62.33;95656.31;10456130;28;20194;-66
2023/04/22 22:06:08;;;;;;;7.22;3.20;;;;;;;13.42;63.03;95664.00;10455520;28;20295;-65
2023/04/22 22:11:09;;;;;;;9.75;3.67;;;;;;;13.36;63.15;95667.44;10455739;28;20199;-66
2023/04/22 22:16:10;;;;;;;8.48;3.55;;;;;;;13.29;62.71;95656.88;10455937;28;20229;-66
2023/04/22 22:21:10;;;;;;;7.70;3.55;;;;;;;13.26;63.20;95669.59;10454713;28;20192;-66
2023/04/22 22:26:11;;;;;;;8.68;3.30;;;;;;;13.32;62.30;95658.28;10454846;28;20211;-66
2023/04/22 22:31:11;;;;;;;8.07;3.28;;;;;;;13.39;62.05;95651.25;10454827;28;20207;-65
2023/04/22 22:36:11;;;;;;;10.15;3.30;;;;;;;13.47;61.36;95635.25;10475470;22;20245;-67
2023/04/22 22:41:12;;;;;;;7.57;3.80;;;;;;;13.51;61.19;95647.00;10451972;28;20246;-67
2023/04/22 22:46:12;;;;;;;4.07;3.17;;;;;;;13.65;60.20;95639.13;10454135;28;20204;-67
2023/04/22 22:51:13;;;;;;;7.53;3.13;;;;;;;13.68;60.53;95633.47;10452821;28;20287;-66
2023/04/22 22:56:14;;;;;;;7.97;3.15;;;;;;;13.86;59.87;95617.06;10453861;28;20204;-66
2023/04/22 23:01:14;;;;;;;8.68;3.38;;;;;;;14.06;57.87;95602.03;10453598;28;20614;-66
2023/04/22 23:06:15;;;;;;;4.97;3.42;;;;;;;14.13;57.57;95602.00;10453599;28;20550;-66
2023/04/22 23:11:15;;;;;;;5.93;3.25;;;;;;;14.14;57.50;95597.56;10453231;28;20280;-66
2023/04/22 23:16:17;;;;;;;8.40;3.00;;;;;;;14.14;57.20;95585.19;10452976;28;20212;-66